Time;durP1;ratioP1;P1;durP2;ratioP2;P2;SDS_P1;SDS_P2;PMS_P1;PMS_P2;Temp;Humidity;BMP_temperature;BMP_pressure;BME280_temperature;BME280_humidity;BME280_pressure;Samples;Min_cycle;Max_cycle;Signal;HPM_P1;HPM_P2
2021/05/17 00:00:32;;;;;;;1.20;1.10;;;;;;;11.81;100.00;99146.86;624298;229;23928;-79
2021/05/17 00:03:00;;;;;;;1.10;1.00;;;;;;;11.94;100.00;99151.44;619048;230;26054;-79
2021/05/17 00:05:30;;;;;;;1.53;1.20;;;;;;;11.87;100.00;99150.06;638380;221;25259;-79
2021/05/17 00:07:57;;;;;;;2.00;1.23;;;;;;;11.87;100.00;99144.05;620616;229;23942;-78
2021/05/17 00:10:27;;;;;;;1.10;1.00;;;;;;;11.79;100.00;99146.73;637603;225;24911;-79
2021/05/17 00:12:54;;;;;;;1.30;1.10;;;;;;;11.78;100.00;99147.19;619993;230;25030;-79
2021/05/17 00:15:22;;;;;;;1.13;1.00;;;;;;;11.79;100.00;99148.84;622699;228;27115;-78
2021/05/17 00:17:52;;;;;;;1.90;1.00;;;;;;;11.81;100.00;99153.38;634697;225;24878;-79
2021/05/17 00:20:21;;;;;;;1.57;0.90;;;;;;;11.91;100.00;99151.00;636178;225;23907;-78
2021/05/17 00:22:51;;;;;;;1.80;1.10;;;;;;;11.94;100.00;99144.93;635387;225;24897;-79
2021/05/17 00:25:23;;;;;;;2.67;1.27;;;;;;;11.81;100.00;99147.35;618460;229;25955;-78
2021/05/17 00:27:50;;;;;;;2.73;1.10;;;;;;;11.82;100.00;99143.30;632135;226;24889;-79
2021/05/17 00:30:20;;;;;;;2.30;1.20;;;;;;;11.80;100.00;99139.22;633587;225;25603;-78
2021/05/17 00:32:48;;;;;;;2.47;1.40;;;;;;;11.93;100.00;99140.70;625916;225;32929;-79
2021/05/17 00:35:16;;;;;;;1.87;1.13;;;;;;;11.77;100.00;99144.27;618719;229;23753;-78
2021/05/17 00:37:44;;;;;;;3.23;1.40;;;;;;;11.69;100.00;99132.66;614708;229;24892;-79
2021/05/17 00:40:12;;;;;;;1.90;1.30;;;;;;;11.73;100.00;99146.93;614268;229;25216;-79
2021/05/17 00:42:40;;;;;;;2.42;1.00;;;;;;;11.70;100.00;99146.48;613153;229;32823;-79
2021/05/17 00:45:10;;;;;;;2.73;1.00;;;;;;;11.74;100.00;99141.23;625600;228;23736;-79
2021/05/17 00:47:39;;;;;;;2.25;1.00;;;;;;;12.08;98.71;99144.61;620898;228;32942;-79
2021/05/17 00:50:08;;;;;;;3.08;1.00;;;;;;;12.02;97.62;99144.05;616875;229;32876;-78
2021/05/17 00:52:36;;;;;;;2.63;1.17;;;;;;;11.84;99.08;99142.61;638864;224;23735;-78
2021/05/17 00:55:05;;;;;;;1.97;1.00;;;;;;;11.87;98.09;99140.95;631756;224;32684;-79
2021/05/17 00:57:33;;;;;;;1.62;0.90;;;;;;;11.92;98.75;99144.30;617320;226;32908;-78
2021/05/17 01:00:01;;;;;;;2.47;1.00;;;;;;;11.89;98.17;99144.67;638169;224;25955;-79
2021/05/17 01:02:30;;;;;;;1.80;1.00;;;;;;;11.93;98.81;99145.11;621162;229;24936;-78
2021/05/17 01:04:58;;;;;;;2.60;1.00;;;;;;;12.01;98.41;99143.73;618606;229;27106;-78
2021/05/17 01:07:28;;;;;;;2.43;1.03;;;;;;;12.05;98.70;99144.98;616116;225;24949;-79
2021/05/17 01:09:56;;;;;;;4.17;1.20;;;;;;;11.92;98.48;99140.89;625078;228;24888;-79
2021/05/17 01:12:24;;;;;;;2.77;1.40;;;;;;;11.77;99.63;99141.67;627055;226;24916;-78
2021/05/17 01:14:54;;;;;;;1.03;0.90;;;;;;;11.83;99.82;99147.52;627892;226;24893;-78
2021/05/17 01:17:22;;;;;;;1.10;0.80;;;;;;;11.81;98.94;99142.95;620885;225;24872;-78
2021/05/17 01:19:54;;;;;;;2.67;1.20;;;;;;;11.74;99.61;99144.64;634675;225;23858;-78
2021/05/17 01:22:22;;;;;;;3.27;1.13;;;;;;;11.81;99.34;99148.16;637824;225;23866;-79
2021/05/17 01:24:49;;;;;;;2.22;0.90;;;;;;;12.09;97.87;99141.81;630851;225;33170;-79
2021/05/17 01:27:17;;;;;;;4.60;1.30;;;;;;;12.11;96.75;99140.36;631132;225;32911;-78
2021/05/17 01:29:46;;;;;;;3.83;0.90;;;;;;;11.76;98.47;99136.14;636673;225;23729;-78
2021/05/17 01:32:14;;;;;;;2.93;0.70;;;;;;;11.83;98.03;99144.91;636046;225;33322;-79
2021/05/17 01:34:43;;;;;;;1.10;1.00;;;;;;;11.72;98.81;99147.11;637613;225;24930;-79
2021/05/17 01:37:11;;;;;;;3.13;0.80;;;;;;;11.52;99.14;99148.11;616172;229;24879;-79
2021/05/17 01:39:39;;;;;;;5.20;1.30;;;;;;;11.50;99.47;99148.78;636588;225;23879;-79
2021/05/17 01:42:07;;;;;;;2.93;1.10;;;;;;;11.66;99.37;99154.31;635890;225;24910;-79
2021/05/17 01:44:36;;;;;;;2.30;1.30;;;;;;;11.56;99.44;99151.99;638363;223;24880;-78
2021/05/17 01:47:04;;;;;;;1.63;0.97;;;;;;;11.57;99.24;99151.00;635189;225;24882;-78
2021/05/17 01:49:33;;;;;;;0.90;0.77;;;;;;;11.55;98.62;99152.48;623033;230;24926;-79
2021/05/17 01:52:01;;;;;;;3.27;1.07;;;;;;;11.51;99.51;99156.91;632487;225;24880;-78
2021/05/17 01:54:30;;;;;;;2.20;1.10;;;;;;;11.49;99.98;99154.98;633991;225;25018;-78
2021/05/17 01:56:58;;;;;;;3.63;0.90;;;;;;;11.53;99.64;99151.02;636003;224;24858;-79
2021/05/17 01:59:29;;;;;;;3.20;0.80;;;;;;;11.66;99.21;99156.43;632201;225;32784;-79
2021/05/17 02:01:57;;;;;;;1.37;0.90;;;;;;;11.69;99.21;99157.89;618233;229;28074;-79
2021/05/17 02:04:25;;;;;;;3.00;1.10;;;;;;;11.56;98.79;99156.70;620454;229;24894;-79
2021/05/17 02:06:53;;;;;;;5.40;0.87;;;;;;;11.65;98.71;99162.63;622326;228;25001;-79
2021/05/17 02:09:21;;;;;;;1.73;0.97;;;;;;;11.59;98.80;99159.44;623479;229;24929;-79
2021/05/17 02:11:49;;;;;;;2.17;0.83;;;;;;;11.50;99.25;99165.70;621978;229;24936;-79
2021/05/17 02:14:17;;;;;;;5.07;1.10;;;;;;;11.59;99.12;99162.86;636788;223;24824;-78
2021/05/17 02:16:46;;;;;;;0.70;0.70;;;;;;;11.56;98.96;99161.11;627091;225;25078;-79
2021/05/17 02:19:14;;;;;;;5.33;1.23;;;;;;;11.52;99.77;99163.23;636100;223;24821;-79
2021/05/17 02:21:42;;;;;;;2.13;1.20;;;;;;;11.57;99.36;99166.62;636304;225;24829;-78
2021/05/17 02:24:11;;;;;;;4.67;1.40;;;;;;;11.65;100.00;99174.34;636688;225;24882;-79
2021/05/17 02:26:40;;;;;;;1.93;0.87;;;;;;;11.64;98.89;99162.31;630782;225;24880;-78
2021/05/17 02:29:08;;;;;;;4.87;1.17;;;;;;;11.65;99.41;99165.23;622147;230;24943;-78
2021/05/17 02:31:37;;;;;;;0.70;0.70;;;;;;;11.77;99.08;99169.02;636018;225;24857;-79
2021/05/17 02:34:06;;;;;;;2.10;0.90;;;;;;;11.68;99.02;99157.55;638916;225;24874;-79
2021/05/17 02:36:34;;;;;;;0.70;0.70;;;;;;;11.42;99.33;99151.48;636198;222;24886;-79
2021/05/17 02:39:02;;;;;;;1.10;1.00;;;;;;;11.47;100.00;99158.25;626229;229;24869;-79
2021/05/17 02:41:30;;;;;;;1.67;0.90;;;;;;;11.41;100.00;99161.58;639760;224;24935;-79
2021/05/17 02:43:59;;;;;;;1.53;0.70;;;;;;;11.44;100.00;99154.70;634870;225;25987;-79
2021/05/17 02:46:27;;;;;;;1.97;0.80;;;;;;;11.35;100.00;99170.07;622531;229;26021;-79
2021/05/17 02:48:55;;;;;;;2.83;0.90;;;;;;;11.39;100.00;99168.73;625277;229;24925;-79
2021/05/17 02:51:24;;;;;;;1.43;0.90;;;;;;;11.28;100.00;99170.78;616036;229;24882;-78
2021/05/17 02:54:03;;;;;;;1.27;0.80;;;;;;;11.37;100.00;99175.91;637362;225;24810;-79
2021/05/17 02:56:34;;;;;;;1.13;0.80;;;;;;;11.45;100.00;99177.95;634903;222;24830;-79
2021/05/17 02:59:03;;;;;;;3.23;0.80;;;;;;;11.35;100.00;99183.09;638380;225;27000;-79
2021/05/17 03:01:35;;;;;;;2.03;0.80;;;;;;;11.42;100.00;99182.22;639064;223;24848;-79
2021/05/17 03:04:07;;;;;;;1.33;0.80;;;;;;;11.43;100.00;99184.33;638307;225;24833;-79
2021/05/17 03:06:35;;;;;;;2.23;0.90;;;;;;;11.36;100.00;99185.52;621077;230;24942;-78
2021/05/17 03:09:05;;;;;;;0.83;0.70;;;;;;;11.40;100.00;99190.70;633983;225;24877;-79
2021/05/17 03:11:33;;;;;;;3.70;0.90;;;;;;;11.53;100.00;99187.48;629152;226;27026;-78
2021/05/17 03:14:01;;;;;;;1.57;0.90;;;;;;;11.28;100.00;99196.01;626520;225;24924;-78
2021/05/17 03:16:29;;;;;;;2.83;0.93;;;;;;;11.39;100.00;99190.86;632483;225;24860;-78
2021/05/17 03:18:57;;;;;;;2.17;1.00;;;;;;;11.29;100.00;99195.83;630446;225;24867;-77
2021/05/17 03:21:25;;;;;;;2.47;1.10;;;;;;;11.33;100.00;99200.19;632835;225;24875;-78
2021/05/17 03:23:53;;;;;;;1.53;0.90;;;;;;;11.34;100.00;99199.69;626979;226;24899;-78
2021/05/17 03:26:21;;;;;;;1.10;1.00;;;;;;;11.30;100.00;99205.25;625370;229;24924;-78
2021/05/17 03:28:49;;;;;;;1.30;0.90;;;;;;;11.21;100.00;99201.08;633514;224;24860;-78
2021/05/17 03:31:17;;;;;;;3.83;1.00;;;;;;;11.23;100.00;99205.63;637604;224;24913;-78
2021/05/17 03:33:45;;;;;;;2.80;1.33;;;;;;;11.33;100.00;99205.89;637618;225;24995;-78
2021/05/17 03:36:14;;;;;;;1.50;0.80;;;;;;;11.35;100.00;99202.12;631008;225;43367;-79
2021/05/17 03:38:42;;;;;;;5.63;1.00;;;;;;;11.23;100.00;99211.31;637899;225;24891;-78
2021/05/17 03:41:10;;;;;;;1.37;0.90;;;;;;;11.27;100.00;99210.01;637149;225;24879;-78
2021/05/17 03:43:38;;;;;;;0.80;0.80;;;;;;;11.13;100.00;99214.67;618444;229;24941;-78
2021/05/17 03:46:06;;;;;;;3.80;1.00;;;;;;;11.28;100.00;99211.13;614479;229;24870;-78
2021/05/17 03:48:40;;;;;;;4.67;0.90;;;;;;;11.26;100.00;99211.80;638232;225;24947;-78
2021/05/17 03:51:04;;;;;;;2.80;1.00;;;;;;;11.34;100.00;99217.91;637881;225;25165;-77
2021/05/17 03:53:32;;;;;;;4.80;1.00;;;;;;;11.18;100.00;99217.55;632108;225;32817;-77
2021/05/17 03:56:00;;;;;;;3.83;1.10;;;;;;;11.15;100.00;99221.31;637599;221;23759;-78
2021/05/17 03:58:29;;;;;;;3.70;1.03;;;;;;;11.00;100.00;99223.04;636740;225;24857;-79
2021/05/17 04:00:58;;;;;;;3.73;1.17;;;;;;;11.06;100.00;99227.54;621261;229;24904;-79
2021/05/17 04:03:26;;;;;;;2.40;0.80;;;;;;;10.93;100.00;99222.90;638286;224;24853;-77
2021/05/17 04:06:06;;;;;;;1.90;1.07;;;;;;;10.91;100.00;99225.36;637138;221;24819;-77
2021/05/17 04:13:36;;;;;;;4.93;1.00;;;;;;;10.92;100.00;99226.98;623234;229;24924;-78
2021/05/17 04:16:06;;;;;;;2.67;0.80;;;;;;;11.06;100.00;99231.44;635790;221;24843;-76
2021/05/17 04:18:34;;;;;;;3.47;0.80;;;;;;;10.94;100.00;99228.42;621920;229;23906;-77
2021/05/17 04:21:02;;;;;;;2.30;1.77;;;;;;;11.09;100.00;99228.98;632771;226;24862;-77
2021/05/17 04:23:30;;;;;;;2.10;0.80;;;;;;;11.09;100.00;99238.90;634351;225;24889;-78
2021/05/17 04:25:58;;;;;;;1.90;0.90;;;;;;;11.00;100.00;99236.05;618742;229;25132;-78
2021/05/17 04:28:26;;;;;;;4.20;1.20;;;;;;;11.25;100.00;99237.48;613332;229;33100;-77
2021/05/17 04:30:54;;;;;;;2.80;0.97;;;;;;;11.19;100.00;99234.28;622687;228;24855;-77
2021/05/17 04:33:22;;;;;;;1.27;0.80;;;;;;;11.22;100.00;99230.52;620768;229;24887;-78
2021/05/17 04:35:50;;;;;;;2.67;0.80;;;;;;;11.23;100.00;99240.75;635220;221;24872;-77
2021/05/17 04:38:18;;;;;;;4.20;0.90;;;;;;;11.19;100.00;99234.78;626734;225;24875;-78
2021/05/17 04:40:47;;;;;;;1.23;1.00;;;;;;;11.11;100.00;99240.83;628349;225;24875;-77
2021/05/17 04:43:15;;;;;;;3.77;0.87;;;;;;;11.04;100.00;99238.62;633499;225;24890;-78
2021/05/17 04:45:43;;;;;;;2.23;0.83;;;;;;;11.08;100.00;99242.48;635811;221;24896;-77
2021/05/17 04:48:12;;;;;;;2.90;1.10;;;;;;;11.16;100.00;99241.14;621089;229;24917;-78
2021/05/17 04:50:40;;;;;;;2.30;0.80;;;;;;;11.26;100.00;99241.73;636906;225;24869;-78
2021/05/17 04:53:08;;;;;;;1.63;0.80;;;;;;;11.47;100.00;99244.17;638866;224;27035;-78
2021/05/17 04:55:36;;;;;;;3.20;1.10;;;;;;;11.49;100.00;99249.52;638724;221;24827;-78
2021/05/17 04:58:08;;;;;;;1.87;0.90;;;;;;;11.41;100.00;99249.60;624153;229;24966;-83
2021/05/17 05:00:36;;;;;;;5.10;0.98;;;;;;;11.13;100.00;99248.50;629993;225;32737;-71
2021/05/17 05:03:06;;;;;;;1.33;1.00;;;;;;;11.26;100.00;99254.75;621469;226;23735;-71
2021/05/17 05:05:34;;;;;;;2.77;1.57;;;;;;;11.30;100.00;99252.60;625574;225;24893;-71
2021/05/17 05:08:01;;;;;;;3.90;0.90;;;;;;;11.08;100.00;99260.70;629130;227;24908;-70
2021/05/17 05:10:29;;;;;;;2.30;0.70;;;;;;;10.96;100.00;99264.67;633618;225;24918;-71
2021/05/17 05:12:57;;;;;;;2.50;1.10;;;;;;;11.00;100.00;99258.16;618351;229;26028;-71
2021/05/17 05:15:25;;;;;;;1.87;0.90;;;;;;;11.05;100.00;99263.66;621360;229;24936;-71
2021/05/17 05:18:07;;;;;;;1.30;0.80;;;;;;;10.94;100.00;99261.44;656359;217;25443;-72
2021/05/17 05:20:35;;;;;;;2.93;0.80;;;;;;;11.00;100.00;99274.58;652228;220;24793;-71
2021/05/17 05:23:04;;;;;;;2.63;0.80;;;;;;;10.87;100.00;99272.22;667131;214;24749;-71
2021/05/17 05:25:42;;;;;;;0.97;0.77;;;;;;;10.95;100.00;99287.27;663367;215;24828;-71
2021/05/17 05:28:01;;;;;;;1.37;0.77;;;;;;;10.89;100.00;99287.16;652456;219;27981;-71
2021/05/17 05:30:40;;;;;;;1.30;0.90;;;;;;;10.91;100.00;99286.49;629760;225;24969;-71
2021/05/17 05:33:07;;;;;;;11.50;1.43;;;;;;;10.89;100.00;99282.77;636841;224;24834;-71
2021/05/17 05:35:25;;;;;;;2.10;0.70;;;;;;;10.87;100.00;99287.33;631360;225;24895;-71
2021/05/17 05:37:53;;;;;;;2.50;1.10;;;;;;;10.76;100.00;99284.29;653954;219;24769;-71
2021/05/17 05:40:21;;;;;;;3.67;0.70;;;;;;;10.76;100.00;99285.59;641539;224;24842;-71
2021/05/17 05:42:49;;;;;;;2.93;0.97;;;;;;;10.89;100.00;99280.66;655662;219;25072;-71
2021/05/17 05:45:17;;;;;;;3.20;0.80;;;;;;;10.90;100.00;99292.67;645599;219;32616;-71
2021/05/17 05:47:45;;;;;;;3.60;1.27;;;;;;;11.02;100.00;99296.52;639542;224;23726;-71
2021/05/17 05:50:14;;;;;;;3.77;1.23;;;;;;;11.16;100.00;99287.98;641538;224;24848;-71
2021/05/17 05:52:41;;;;;;;2.57;0.90;;;;;;;11.46;99.78;99298.54;652564;219;25200;-71
2021/05/17 05:55:10;;;;;;;1.43;0.73;;;;;;;11.21;99.56;99286.97;638251;225;24802;-71
2021/05/17 05:57:41;;;;;;;1.40;0.80;;;;;;;11.34;98.62;99288.20;638091;224;24872;-71
2021/05/17 06:00:08;;;;;;;2.27;0.70;;;;;;;11.82;96.81;99285.28;653477;219;24860;-71
2021/05/17 06:02:37;;;;;;;1.30;0.83;;;;;;;12.14;95.45;99291.17;640187;224;24806;-71
2021/05/17 06:05:05;;;;;;;2.30;1.17;;;;;;;11.94;96.94;99295.25;639294;224;24812;-71
2021/05/17 06:07:33;;;;;;;1.90;0.73;;;;;;;11.64;95.02;99301.66;638326;224;24861;-71
2021/05/17 06:10:01;;;;;;;1.70;1.00;;;;;;;12.06;95.08;99300.36;639626;224;24855;-71
2021/05/17 06:12:30;;;;;;;1.37;0.73;;;;;;;11.96;94.57;99301.09;654700;217;24811;-71
2021/05/17 06:14:59;;;;;;;1.20;0.67;;;;;;;11.97;95.33;99311.86;650309;219;24788;-71
2021/05/17 06:17:26;;;;;;;2.70;0.60;;;;;;;12.06;94.28;99316.00;638852;224;24839;-71
2021/05/17 06:19:54;;;;;;;1.50;0.70;;;;;;;11.99;93.31;99313.80;634191;224;35597;-71
2021/05/17 06:22:22;;;;;;;1.47;0.70;;;;;;;11.68;95.88;99317.24;634821;223;32681;-71
2021/05/17 06:24:50;;;;;;;2.60;1.10;;;;;;;11.86;94.65;99312.59;650026;219;32447;-71
2021/05/17 06:27:19;;;;;;;2.15;0.80;;;;;;;11.51;96.04;99331.37;648371;218;32578;-71
2021/05/17 06:29:47;;;;;;;1.10;0.60;;;;;;;11.81;95.41;99324.02;640823;223;30364;-71
2021/05/17 06:32:20;;;;;;;1.33;0.70;;;;;;;12.02;93.52;99328.58;639106;224;25059;-71
2021/05/17 06:34:48;;;;;;;2.43;0.70;;;;;;;12.46;93.60;99339.57;654404;218;24812;-71
2021/05/17 06:37:16;;;;;;;2.80;0.63;;;;;;;11.96;94.16;99332.36;655462;218;23840;-71
2021/05/17 06:39:44;;;;;;;2.58;1.05;;;;;;;11.76;95.13;99335.43;649607;219;32540;-71
2021/05/17 06:42:14;;;;;;;1.60;0.70;;;;;;;12.13;94.23;99338.59;651034;220;23689;-71
2021/05/17 06:44:42;;;;;;;1.03;0.70;;;;;;;12.46;93.04;99344.29;638795;224;23851;-71
2021/05/17 06:47:10;;;;;;;3.80;0.90;;;;;;;12.00;93.73;99350.59;654049;220;23815;-71
2021/05/17 06:49:38;;;;;;;2.80;0.70;;;;;;;12.02;94.54;99351.22;653138;219;24821;-72
2021/05/17 06:52:07;;;;;;;0.77;0.60;;;;;;;11.86;95.49;99359.98;650611;219;24853;-71
2021/05/17 06:54:35;;;;;;;3.65;0.80;;;;;;;12.04;94.85;99359.67;633667;224;32570;-71
2021/05/17 06:57:09;;;;;;;3.47;1.20;;;;;;;12.55;93.85;99359.38;640383;224;23734;-71
2021/05/17 06:59:43;;;;;;;3.03;1.10;;;;;;;12.21;92.62;99359.03;638516;224;23870;-71
2021/05/17 07:02:01;;;;;;;1.03;0.80;;;;;;;12.29;91.52;99355.88;639565;223;24885;-71
2021/05/17 07:04:29;;;;;;;0.90;0.80;;;;;;;12.34;91.62;99366.56;656283;219;23847;-71
2021/05/17 07:06:57;;;;;;;2.60;0.80;;;;;;;12.36;91.93;99367.20;651627;219;24770;-71
2021/05/17 07:12:04;;;;;;;1.70;0.80;;;;;;;12.17;91.48;99372.92;655439;219;24854;-71
2021/05/17 07:14:27;;;;;;;0.50;0.50;;;;;;;12.19;91.48;99378.77;638862;224;23861;-71
2021/05/17 07:16:55;;;;;;;2.87;0.90;;;;;;;12.01;92.86;99379.58;647714;219;24770;-71
2021/05/17 07:19:23;;;;;;;1.60;0.80;;;;;;;11.57;94.74;99385.38;638558;224;23851;-71
2021/05/17 07:24:29;;;;;;;3.57;1.10;;;;;;;11.45;97.55;99395.38;652115;219;24815;-71
2021/05/17 07:26:57;;;;;;;0.80;0.70;;;;;;;11.69;98.63;99401.44;638412;224;23875;-71
2021/05/17 07:29:25;;;;;;;2.43;0.80;;;;;;;11.54;96.78;99395.66;654410;219;24769;-71
2021/05/17 07:31:53;;;;;;;1.70;0.70;;;;;;;11.88;97.27;99394.48;641544;223;24872;-71
2021/05/17 07:34:21;;;;;;;5.37;0.63;;;;;;;11.93;97.89;99399.98;656007;219;23818;-71
2021/05/17 07:36:49;;;;;;;1.93;0.90;;;;;;;11.69;98.56;99402.73;652897;219;25876;-71
2021/05/17 07:39:17;;;;;;;0.70;0.70;;;;;;;11.98;97.80;99393.77;644317;219;23845;-71
2021/05/17 07:41:45;;;;;;;1.73;0.87;;;;;;;11.68;97.21;99396.69;643275;220;24850;-71
2021/05/17 07:44:13;;;;;;;2.70;0.70;;;;;;;12.20;97.87;99401.23;638009;223;24886;-71
2021/05/17 07:46:40;;;;;;;2.40;0.90;;;;;;;12.08;94.67;99393.52;642267;223;23858;-71
2021/05/17 07:49:10;;;;;;;0.90;0.60;;;;;;;12.28;97.86;99403.80;639829;224;24835;-71
2021/05/17 07:51:38;;;;;;;1.80;1.10;;;;;;;12.38;95.54;99386.08;651555;219;24829;-71
2021/05/17 07:54:06;;;;;;;1.90;0.80;;;;;;;13.15;93.97;99390.17;652214;220;26990;-71
2021/05/17 07:56:34;;;;;;;3.00;0.80;;;;;;;12.48;93.79;99385.84;640588;224;24826;-71
2021/05/17 07:59:02;;;;;;;1.63;0.77;;;;;;;12.76;91.85;99385.55;640231;224;24818;-71
2021/05/17 08:01:30;;;;;;;4.13;1.10;;;;;;;12.93;92.20;99380.95;652985;219;26049;-71
2021/05/17 08:03:58;;;;;;;4.07;1.03;;;;;;;13.31;90.04;99380.86;652107;220;24851;-72
2021/05/17 08:06:26;;;;;;;1.00;0.70;;;;;;;12.85;90.42;99378.95;655412;218;24809;-71
2021/05/17 08:08:54;;;;;;;2.37;0.80;;;;;;;13.25;90.66;99379.80;652704;219;24853;-71
2021/05/17 08:11:22;;;;;;;4.33;1.00;;;;;;;13.44;90.20;99387.54;640210;224;24861;-71
2021/05/17 08:13:50;;;;;;;3.80;1.00;;;;;;;14.36;87.17;99385.50;649746;219;32550;-72
2021/05/17 08:16:24;;;;;;;4.53;1.20;;;;;;;14.19;87.46;99384.45;650065;219;32657;-71
2021/05/17 08:18:52;;;;;;;2.62;0.90;;;;;;;13.90;87.27;99383.28;634778;224;32968;-71
2021/05/17 08:21:19;;;;;;;1.53;0.90;;;;;;;13.96;88.41;99400.35;627431;225;23734;-72
2021/05/17 08:23:47;;;;;;;2.70;1.30;;;;;;;13.21;89.07;99394.69;650731;220;24814;-72
2021/05/17 08:26:15;;;;;;;2.40;1.00;;;;;;;13.16;88.59;99400.94;648589;219;32495;-71
2021/05/17 08:28:43;;;;;;;2.00;0.90;;;;;;;12.26;94.26;99407.57;653316;219;24797;-71
2021/05/17 08:31:14;;;;;;;4.63;1.20;;;;;;;12.37;95.36;99410.54;639082;223;24852;-71
2021/05/17 08:33:39;;;;;;;2.97;1.10;;;;;;;12.55;95.46;99408.13;653552;219;23856;-71
2021/05/17 08:36:08;;;;;;;1.53;1.10;;;;;;;12.59;94.54;99398.95;654065;219;24787;-71
2021/05/17 08:38:35;;;;;;;1.73;1.20;;;;;;;12.55;94.74;99405.02;650485;220;24791;-71
2021/05/17 08:41:03;;;;;;;2.43;1.03;;;;;;;12.40;96.33;99409.40;638839;224;24970;-71
2021/05/17 08:43:31;;;;;;;5.20;1.23;;;;;;;12.40;98.66;99423.25;654574;219;24836;-71
2021/05/17 08:45:59;;;;;;;3.70;1.20;;;;;;;12.33;99.58;99426.23;651402;219;24797;-72
2021/05/17 08:48:27;;;;;;;1.37;0.97;;;;;;;12.26;100.00;99429.23;651834;220;24803;-71
2021/05/17 08:50:55;;;;;;;3.30;1.07;;;;;;;12.04;100.00;99424.34;639771;223;24900;-72
2021/05/17 08:53:23;;;;;;;7.13;1.30;;;;;;;12.02;100.00;99418.49;639763;223;23870;-72
2021/05/17 08:55:51;;;;;;;2.93;1.00;;;;;;;12.05;100.00;99417.33;657095;218;24788;-72
2021/05/17 08:58:20;;;;;;;3.87;1.07;;;;;;;11.99;100.00;99422.75;642623;223;24858;-72
2021/05/17 09:00:48;;;;;;;3.70;1.00;;;;;;;12.05;100.00;99431.66;655188;218;23821;-72
2021/05/17 09:03:16;;;;;;;5.50;1.20;;;;;;;11.80;100.00;99424.00;652765;219;24801;-72
2021/05/17 09:05:48;;;;;;;1.70;1.00;;;;;;;11.88;100.00;99427.87;638523;224;24827;-72
2021/05/17 09:08:16;;;;;;;3.07;0.90;;;;;;;11.63;100.00;99424.23;655659;219;24900;-72
2021/05/17 09:10:44;;;;;;;3.70;0.90;;;;;;;12.05;100.00;99419.44;642144;219;32518;-72
2021/05/17 09:13:11;;;;;;;3.10;1.30;;;;;;;11.54;100.00;99423.46;639340;224;23709;-72
2021/05/17 09:15:39;;;;;;;2.30;1.20;;;;;;;11.22;100.00;99429.63;655664;219;25040;-72
2021/05/17 09:18:08;;;;;;;3.80;1.20;;;;;;;11.01;100.00;99431.50;645263;219;34430;-73
2021/05/17 09:20:37;;;;;;;1.77;1.00;;;;;;;10.93;100.00;99434.12;649578;220;23821;-72
2021/05/17 09:23:07;;;;;;;1.27;1.00;;;;;;;10.90;100.00;99428.77;638966;224;27086;-72
2021/05/17 09:25:35;;;;;;;2.83;0.90;;;;;;;10.60;100.00;99425.09;636477;225;24817;-72
2021/05/17 09:28:03;;;;;;;1.37;0.90;;;;;;;10.84;100.00;99424.23;649529;221;24825;-72
2021/05/17 09:30:46;;;;;;;2.13;1.20;;;;;;;10.90;100.00;99417.05;639899;224;24824;-72
2021/05/17 09:33:15;;;;;;;1.20;0.90;;;;;;;11.15;100.00;99424.30;641132;222;28037;-72
2021/05/17 09:35:44;;;;;;;2.80;1.10;;;;;;;11.28;100.00;99423.77;652399;219;24782;-72
2021/05/17 09:38:18;;;;;;;1.13;0.80;;;;;;;11.32;100.00;99425.05;653102;220;24812;-72
2021/05/17 09:40:46;;;;;;;1.63;0.80;;;;;;;11.53;100.00;99426.56;640765;224;23859;-72
2021/05/17 09:43:15;;;;;;;1.07;0.80;;;;;;;11.40;100.00;99426.33;628701;225;23912;-72
2021/05/17 09:45:42;;;;;;;1.97;0.80;;;;;;;11.22;100.00;99436.95;650558;219;28011;-72
2021/05/17 09:48:10;;;;;;;1.33;0.73;;;;;;;11.52;100.00;99429.34;655605;219;24847;-72
2021/05/17 09:50:49;;;;;;;1.47;0.80;;;;;;;11.97;100.00;99426.52;653875;219;24805;-72
2021/05/17 09:53:22;;;;;;;1.90;0.80;;;;;;;13.15;98.53;99430.64;652290;218;25058;-72
2021/05/17 09:55:50;;;;;;;2.65;1.00;;;;;;;13.71;94.67;99416.08;648503;219;43415;-72
2021/05/17 09:58:29;;;;;;;2.00;0.90;;;;;;;13.44;93.56;99424.11;637594;224;24049;-72
2021/05/17 10:01:05;;;;;;;1.10;0.70;;;;;;;13.91;93.53;99408.42;639712;224;24813;-72
2021/05/17 10:03:35;;;;;;;6.47;0.90;;;;;;;13.64;90.62;99405.54;639218;224;28018;-72
2021/05/17 10:06:03;;;;;;;2.20;0.70;;;;;;;13.70;93.25;99413.66;642991;222;24846;-72
2021/05/17 10:08:31;;;;;;;3.03;0.83;;;;;;;13.78;89.60;99404.38;640545;223;24828;-72
2021/05/17 10:10:59;;;;;;;3.17;0.83;;;;;;;13.76;92.77;99419.44;654092;218;23799;-72
2021/05/17 10:13:33;;;;;;;3.17;1.83;;;;;;;13.58;91.24;99412.82;653480;219;24826;-72
2021/05/17 10:15:55;;;;;;;2.10;0.70;;;;;;;13.98;91.71;99417.16;637943;225;28026;-78
2021/05/17 10:18:23;;;;;;;3.97;0.80;;;;;;;14.80;89.45;99412.71;641026;222;24890;-77
2021/05/17 10:20:50;;;;;;;2.77;0.90;;;;;;;14.92;86.75;99388.08;636870;223;23860;-77
2021/05/17 10:23:18;;;;;;;2.80;0.70;;;;;;;14.84;86.53;99391.17;638028;223;24840;-78
2021/05/17 10:25:46;;;;;;;1.70;0.83;;;;;;;15.24;86.57;99391.37;640055;224;23857;-77
2021/05/17 10:28:15;;;;;;;1.23;0.80;;;;;;;15.57;85.93;99388.86;638407;224;24074;-77
2021/05/17 10:30:43;;;;;;;2.90;1.10;;;;;;;15.89;84.27;99381.28;634968;223;43638;-77
2021/05/17 10:33:12;;;;;;;2.00;0.93;;;;;;;16.20;85.42;99384.15;656116;219;23808;-77
2021/05/17 10:35:48;;;;;;;1.80;0.90;;;;;;;15.78;84.01;99374.03;654796;219;23805;-77
2021/05/17 10:38:20;;;;;;;3.90;0.80;;;;;;;16.53;84.72;99382.00;652879;219;24881;-76
2021/05/17 10:40:48;;;;;;;2.13;0.90;;;;;;;16.29;82.30;99379.48;633666;224;24835;-76
2021/05/17 10:43:20;;;;;;;6.03;0.90;;;;;;;16.23;82.98;99379.00;639626;224;23864;-77
2021/05/17 10:48:23;;;;;;;3.80;0.90;;;;;;;16.44;82.52;99377.45;653483;219;31277;-77
2021/05/17 10:50:51;;;;;;;2.47;1.10;;;;;;;15.64;80.35;99364.83;638513;224;24836;-76
2021/05/17 10:53:29;;;;;;;5.00;1.20;;;;;;;15.81;83.05;99374.42;640804;224;23917;-77
2021/05/17 10:55:58;;;;;;;2.80;0.90;;;;;;;16.46;78.36;99362.81;652546;219;24821;-77
2021/05/17 11:01:51;;;;;;;2.10;0.70;;;;;;;17.41;78.31;99354.24;651858;219;25114;-76
2021/05/17 11:04:27;;;;;;;2.50;1.00;;;;;;;17.41;77.36;99347.67;654347;219;23818;-77
2021/05/17 11:07:06;;;;;;;2.03;1.00;;;;;;;17.51;76.87;99363.80;651304;218;23813;-77
2021/05/17 11:09:41;;;;;;;3.00;1.17;;;;;;;16.52;78.24;99355.45;638475;223;24849;-77
2021/05/17 11:12:20;;;;;;;1.93;1.10;;;;;;;15.48;81.13;99369.56;654582;219;23809;-77
2021/05/17 11:15:02;;;;;;;2.40;0.90;;;;;;;15.01;83.58;99373.83;638328;223;24882;-77
2021/05/17 11:17:30;;;;;;;2.30;1.13;;;;;;;14.33;86.28;99367.55;638308;222;23850;-77
2021/05/17 11:19:58;;;;;;;2.00;0.80;;;;;;;13.97;88.99;99388.09;641803;223;23864;-76
2021/05/17 11:22:51;;;;;;;2.00;0.80;;;;;;;14.03;89.30;99389.94;640740;223;24854;-77
2021/05/17 11:25:19;;;;;;;1.53;0.90;;;;;;;13.92;88.15;99407.43;639699;224;23859;-76
2021/05/17 11:27:47;;;;;;;1.80;1.00;;;;;;;13.65;89.56;99422.86;639462;224;24817;-76
2021/05/17 11:30:25;;;;;;;5.10;1.20;;;;;;;13.79;91.36;99426.89;656622;219;24803;-76
2021/05/17 11:33:12;;;;;;;0.80;0.80;;;;;;;13.85;92.88;99431.41;640780;219;23869;-76
2021/05/17 11:35:59;;;;;;;2.30;0.90;;;;;;;13.66;92.56;99444.08;656691;219;27958;-76
2021/05/17 11:38:27;;;;;;;4.53;0.70;;;;;;;13.57;93.78;99458.23;652203;219;24808;-75
2021/05/17 11:40:55;;;;;;;1.20;0.80;;;;;;;13.02;98.57;99480.38;639906;224;24822;-75
2021/05/17 11:43:23;;;;;;;7.20;1.03;;;;;;;13.29;100.00;99478.17;656670;219;26397;-75
2021/05/17 11:45:51;;;;;;;2.60;1.10;;;;;;;13.34;100.00;99463.56;654002;219;24811;-76
2021/05/17 11:48:19;;;;;;;3.53;1.10;;;;;;;13.46;98.43;99460.00;645656;221;24848;-75
2021/05/17 11:50:47;;;;;;;3.47;1.10;;;;;;;13.84;98.43;99460.66;634275;223;33055;-75
2021/05/17 11:53:15;;;;;;;2.90;0.90;;;;;;;13.69;98.03;99468.22;640893;224;26946;-76